sensor_id;sensor_type;location;lat;lon;timestamp;temperature;humidity
14099;DHT22;7126;48.458;7.930;2024-03-07T00:02:08;8.50;99.90
14099;DHT22;7126;48.458;7.930;2024-03-07T00:04:33;8.50;99.90
14099;DHT22;7126;48.458;7.930;2024-03-07T00:07:02;8.50;99.90
14099;DHT22;7126;48.458;7.930;2024-03-07T00:09:31;8.50;99.90
14099;DHT22;7126;48.458;7.930;2024-03-07T00:11:56;8.50;99.90
14099;DHT22;7126;48.458;7.930;2024-03-07T00:14:22;8.50;99.90
14099;DHT22;7126;48.458;7.930;2024-03-07T00:16:55;8.50;99.90
14099;DHT22;7126;48.458;7.930;2024-03-07T00:19:21;8.40;99.90
14099;DHT22;7126;48.458;7.930;2024-03-07T00:21:47;8.30;99.90
14099;DHT22;7126;48.458;7.930;2024-03-07T00:24:12;8.30;99.90
14099;DHT22;7126;48.458;7.930;2024-03-07T00:26:39;8.30;99.90
14099;DHT22;7126;48.458;7.930;2024-03-07T00:29:06;8.40;99.90
14099;DHT22;7126;48.458;7.930;2024-03-07T00:31:32;8.40;99.90
14099;DHT22;7126;48.458;7.930;2024-03-07T00:33:58;8.40;99.90
14099;DHT22;7126;48.458;7.930;2024-03-07T00:36:24;8.40;99.90
14099;DHT22;7126;48.458;7.930;2024-03-07T00:38:51;8.40;99.90
14099;DHT22;7126;48.458;7.930;2024-03-07T00:41:17;8.40;99.90
14099;DHT22;7126;48.458;7.930;2024-03-07T00:43:43;8.40;99.90
14099;DHT22;7126;48.458;7.930;2024-03-07T00:46:08;8.50;99.90
14099;DHT22;7126;48.458;7.930;2024-03-07T00:48:36;8.50;99.90
14099;DHT22;7126;48.458;7.930;2024-03-07T00:51:02;8.50;99.90
14099;DHT22;7126;48.458;7.930;2024-03-07T00:53:29;8.50;99.90
14099;DHT22;7126;48.458;7.930;2024-03-07T00:55:55;8.50;99.90
14099;DHT22;7126;48.458;7.930;2024-03-07T00:58:20;8.50;99.90
14099;DHT22;7126;48.458;7.930;2024-03-07T01:00:46;8.50;99.90
14099;DHT22;7126;48.458;7.930;2024-03-07T01:03:12;8.50;99.90
14099;DHT22;7126;48.458;7.930;2024-03-07T01:05:42;8.50;99.90
14099;DHT22;7126;48.458;7.930;2024-03-07T01:08:07;8.50;99.90
14099;DHT22;7126;48.458;7.930;2024-03-07T01:10:33;8.60;99.90
14099;DHT22;7126;48.458;7.930;2024-03-07T01:12:59;8.50;99.90
14099;DHT22;7126;48.458;7.930;2024-03-07T01:15:28;8.50;99.90
14099;DHT22;7126;48.458;7.930;2024-03-07T01:17:53;8.50;99.90
14099;DHT22;7126;48.458;7.930;2024-03-07T01:20:19;8.50;99.90
14099;DHT22;7126;48.458;7.930;2024-03-07T01:22:44;8.50;99.90
14099;DHT22;7126;48.458;7.930;2024-03-07T01:25:10;8.60;99.90
14099;DHT22;7126;48.458;7.930;2024-03-07T01:27:38;8.50;99.90
14099;DHT22;7126;48.458;7.930;2024-03-07T01:30:04;8.50;99.90
14099;DHT22;7126;48.458;7.930;2024-03-07T01:32:33;8.50;99.90
14099;DHT22;7126;48.458;7.930;2024-03-07T01:34:59;8.50;99.90
14099;DHT22;7126;48.458;7.930;2024-03-07T01:37:24;8.50;99.90
14099;DHT22;7126;48.458;7.930;2024-03-07T01:39:50;8.60;99.90
14099;DHT22;7126;48.458;7.930;2024-03-07T01:42:15;8.60;99.90
14099;DHT22;7126;48.458;7.930;2024-03-07T01:44:41;8.60;99.90
14099;DHT22;7126;48.458;7.930;2024-03-07T01:47:09;8.50;99.90
14099;DHT22;7126;48.458;7.930;2024-03-07T01:49:36;8.50;99.90
14099;DHT22;7126;48.458;7.930;2024-03-07T01:52:02;8.50;99.90
14099;DHT22;7126;48.458;7.930;2024-03-07T01:54:30;8.50;99.90
14099;DHT22;7126;48.458;7.930;2024-03-07T01:56:56;8.50;99.90
14099;DHT22;7126;48.458;7.930;2024-03-07T01:59:22;8.50;99.90
14099;DHT22;7126;48.458;7.930;2024-03-07T02:01:47;8.50;99.90
14099;DHT22;7126;48.458;7.930;2024-03-07T02:04:13;8.50;99.90
14099;DHT22;7126;48.458;7.930;2024-03-07T02:06:40;8.50;99.90
14099;DHT22;7126;48.458;7.930;2024-03-07T02:09:06;8.50;99.90
14099;DHT22;7126;48.458;7.930;2024-03-07T02:11:32;8.60;99.90
14099;DHT22;7126;48.458;7.930;2024-03-07T02:13:57;8.60;99.90
14099;DHT22;7126;48.458;7.930;2024-03-07T02:16:23;8.60;99.90
14099;DHT22;7126;48.458;7.930;2024-03-07T02:18:50;8.60;99.90
14099;DHT22;7126;48.458;7.930;2024-03-07T02:21:16;8.60;99.90
14099;DHT22;7126;48.458;7.930;2024-03-07T02:23:41;8.60;99.90
14099;DHT22;7126;48.458;7.930;2024-03-07T02:26:07;8.60;99.90
14099;DHT22;7126;48.458;7.930;2024-03-07T02:28:34;8.60;99.90
14099;DHT22;7126;48.458;7.930;2024-03-07T02:31:00;8.60;99.90
14099;DHT22;7126;48.458;7.930;2024-03-07T02:33:25;8.60;99.90
14099;DHT22;7126;48.458;7.930;2024-03-07T02:35:51;8.60;99.90
14099;DHT22;7126;48.458;7.930;2024-03-07T02:38:16;8.60;99.90
14099;DHT22;7126;48.458;7.930;2024-03-07T02:40:43;8.60;99.90
14099;DHT22;7126;48.458;7.930;2024-03-07T02:43:08;8.50;99.90
14099;DHT22;7126;48.458;7.930;2024-03-07T02:45:34;8.50;99.90
14099;DHT22;7126;48.458;7.930;2024-03-07T02:47:59;8.50;99.90
14099;DHT22;7126;48.458;7.930;2024-03-07T02:50:25;8.50;99.90
14099;DHT22;7126;48.458;7.930;2024-03-07T02:52:50;8.50;99.90
14099;DHT22;7126;48.458;7.930;2024-03-07T02:55:17;8.50;99.90
14099;DHT22;7126;48.458;7.930;2024-03-07T02:57:44;8.40;99.90
14099;DHT22;7126;48.458;7.930;2024-03-07T03:00:11;8.40;99.90
14099;DHT22;7126;48.458;7.930;2024-03-07T03:02:49;8.40;99.90
14099;DHT22;7126;48.458;7.930;2024-03-07T03:05:15;8.40;99.90
14099;DHT22;7126;48.458;7.930;2024-03-07T03:07:41;8.40;99.90
14099;DHT22;7126;48.458;7.930;2024-03-07T03:10:07;8.40;99.90
14099;DHT22;7126;48.458;7.930;2024-03-07T03:12:36;8.40;99.90
14099;DHT22;7126;48.458;7.930;2024-03-07T03:15:02;8.40;99.90
14099;DHT22;7126;48.458;7.930;2024-03-07T03:17:31;8.30;99.90
14099;DHT22;7126;48.458;7.930;2024-03-07T03:19:56;8.30;99.90
14099;DHT22;7126;48.458;7.930;2024-03-07T03:22:22;8.30;99.90
14099;DHT22;7126;48.458;7.930;2024-03-07T03:24:47;8.30;99.90
14099;DHT22;7126;48.458;7.930;2024-03-07T03:27:13;8.30;99.90
14099;DHT22;7126;48.458;7.930;2024-03-07T03:29:39;8.30;99.90
14099;DHT22;7126;48.458;7.930;2024-03-07T03:32:06;8.30;99.90
14099;DHT22;7126;48.458;7.930;2024-03-07T03:34:34;8.30;99.90
14099;DHT22;7126;48.458;7.930;2024-03-07T03:36:59;8.30;99.90
14099;DHT22;7126;48.458;7.930;2024-03-07T03:39:25;8.30;99.90
14099;DHT22;7126;48.458;7.930;2024-03-07T03:41:52;8.20;99.90
14099;DHT22;7126;48.458;7.930;2024-03-07T03:44:18;8.20;99.90
14099;DHT22;7126;48.458;7.930;2024-03-07T03:46:43;8.20;99.90
14099;DHT22;7126;48.458;7.930;2024-03-07T03:49:09;8.20;99.90
14099;DHT22;7126;48.458;7.930;2024-03-07T03:51:35;8.10;99.90
14099;DHT22;7126;48.458;7.930;2024-03-07T03:54:01;8.10;99.90
14099;DHT22;7126;48.458;7.930;2024-03-07T03:56:27;8.10;99.90
14099;DHT22;7126;48.458;7.930;2024-03-07T03:58:52;8.00;99.90
14099;DHT22;7126;48.458;7.930;2024-03-07T04:01:18;8.00;99.90
14099;DHT22;7126;48.458;7.930;2024-03-07T04:03:44;8.00;99.90
14099;DHT22;7126;48.458;7.930;2024-03-07T04:06:12;8.00;99.90
14099;DHT22;7126;48.458;7.930;2024-03-07T04:08:37;7.90;99.90
14099;DHT22;7126;48.458;7.930;2024-03-07T04:11:03;7.90;99.90
14099;DHT22;7126;48.458;7.930;2024-03-07T04:13:29;7.90;99.90
14099;DHT22;7126;48.458;7.930;2024-03-07T04:15:55;7.80;99.90
14099;DHT22;7126;48.458;7.930;2024-03-07T04:18:22;7.80;99.90
14099;DHT22;7126;48.458;7.930;2024-03-07T04:20:48;7.80;99.90
14099;DHT22;7126;48.458;7.930;2024-03-07T04:23:13;7.80;99.90
14099;DHT22;7126;48.458;7.930;2024-03-07T04:25:39;7.80;99.90
14099;DHT22;7126;48.458;7.930;2024-03-07T04:28:04;7.80;99.90
14099;DHT22;7126;48.458;7.930;2024-03-07T04:30:30;7.80;99.90
14099;DHT22;7126;48.458;7.930;2024-03-07T04:32:56;7.80;99.90
14099;DHT22;7126;48.458;7.930;2024-03-07T04:35:23;7.80;99.90
14099;DHT22;7126;48.458;7.930;2024-03-07T04:37:49;7.80;99.90
14099;DHT22;7126;48.458;7.930;2024-03-07T04:40:15;7.70;99.90
14099;DHT22;7126;48.458;7.930;2024-03-07T04:42:50;7.70;99.90
14099;DHT22;7126;48.458;7.930;2024-03-07T04:45:16;7.70;99.90
14099;DHT22;7126;48.458;7.930;2024-03-07T04:47:42;7.70;99.90
14099;DHT22;7126;48.458;7.930;2024-03-07T04:50:09;7.60;99.90
14099;DHT22;7126;48.458;7.930;2024-03-07T04:52:38;7.60;99.90
14099;DHT22;7126;48.458;7.930;2024-03-07T04:55:06;7.50;99.90
14099;DHT22;7126;48.458;7.930;2024-03-07T04:57:34;7.50;99.90
14099;DHT22;7126;48.458;7.930;2024-03-07T05:00:00;7.50;99.90
14099;DHT22;7126;48.458;7.930;2024-03-07T05:02:26;7.50;99.90
14099;DHT22;7126;48.458;7.930;2024-03-07T05:04:52;7.50;99.90
14099;DHT22;7126;48.458;7.930;2024-03-07T05:07:17;7.40;99.90
14099;DHT22;7126;48.458;7.930;2024-03-07T05:09:44;7.40;99.90
14099;DHT22;7126;48.458;7.930;2024-03-07T05:12:09;7.30;99.90
14099;DHT22;7126;48.458;7.930;2024-03-07T05:14:35;7.20;99.90
14099;DHT22;7126;48.458;7.930;2024-03-07T05:17:00;7.10;99.90
14099;DHT22;7126;48.458;7.930;2024-03-07T05:19:34;7.10;99.90
14099;DHT22;7126;48.458;7.930;2024-03-07T05:22:00;7.10;99.90
14099;DHT22;7126;48.458;7.930;2024-03-07T05:24:25;7.00;99.90
14099;DHT22;7126;48.458;7.930;2024-03-07T05:26:51;7.00;99.90
14099;DHT22;7126;48.458;7.930;2024-03-07T05:29:18;7.00;99.90
14099;DHT22;7126;48.458;7.930;2024-03-07T05:31:44;7.00;99.90
14099;DHT22;7126;48.458;7.930;2024-03-07T05:34:13;7.00;99.90
14099;DHT22;7126;48.458;7.930;2024-03-07T05:36:40;7.00;99.90
14099;DHT22;7126;48.458;7.930;2024-03-07T05:39:10;7.10;99.90
14099;DHT22;7126;48.458;7.930;2024-03-07T05:41:37;7.10;99.90
14099;DHT22;7126;48.458;7.930;2024-03-07T05:44:03;7.20;99.90
14099;DHT22;7126;48.458;7.930;2024-03-07T05:46:33;7.30;99.90
14099;DHT22;7126;48.458;7.930;2024-03-07T05:49:00;7.30;99.90
14099;DHT22;7126;48.458;7.930;2024-03-07T05:51:26;7.40;99.90
14099;DHT22;7126;48.458;7.930;2024-03-07T05:53:51;7.40;99.90
14099;DHT22;7126;48.458;7.930;2024-03-07T05:56:17;7.50;99.90
14099;DHT22;7126;48.458;7.930;2024-03-07T05:58:43;7.50;99.90
14099;DHT22;7126;48.458;7.930;2024-03-07T06:01:08;7.50;99.90
14099;DHT22;7126;48.458;7.930;2024-03-07T06:03:34;7.50;99.90
14099;DHT22;7126;48.458;7.930;2024-03-07T06:06:00;7.50;99.90
14099;DHT22;7126;48.458;7.930;2024-03-07T06:08:26;7.50;99.90
14099;DHT22;7126;48.458;7.930;2024-03-07T06:10:52;7.60;99.90
14099;DHT22;7126;48.458;7.930;2024-03-07T06:13:18;7.50;99.90
14099;DHT22;7126;48.458;7.930;2024-03-07T06:15:44;7.60;99.90
14099;DHT22;7126;48.458;7.930;2024-03-07T06:18:10;7.50;99.90
14099;DHT22;7126;48.458;7.930;2024-03-07T06:20:36;7.60;99.90
14099;DHT22;7126;48.458;7.930;2024-03-07T06:23:02;7.60;99.90
14099;DHT22;7126;48.458;7.930;2024-03-07T06:25:33;7.60;99.90
14099;DHT22;7126;48.458;7.930;2024-03-07T06:28:05;7.50;99.90
14099;DHT22;7126;48.458;7.930;2024-03-07T06:30:41;7.50;99.90
14099;DHT22;7126;48.458;7.930;2024-03-07T06:33:07;7.50;99.90
14099;DHT22;7126;48.458;7.930;2024-03-07T06:35:33;7.50;99.90
14099;DHT22;7126;48.458;7.930;2024-03-07T06:38:03;7.50;99.90
14099;DHT22;7126;48.458;7.930;2024-03-07T06:40:29;7.50;99.90
14099;DHT22;7126;48.458;7.930;2024-03-07T06:42:55;7.50;99.90
14099;DHT22;7126;48.458;7.930;2024-03-07T06:45:20;7.50;99.90
14099;DHT22;7126;48.458;7.930;2024-03-07T06:47:46;7.50;99.90
14099;DHT22;7126;48.458;7.930;2024-03-07T06:50:12;7.50;99.90
14099;DHT22;7126;48.458;7.930;2024-03-07T06:52:42;7.50;99.90
14099;DHT22;7126;48.458;7.930;2024-03-07T06:55:09;7.50;99.90
14099;DHT22;7126;48.458;7.930;2024-03-07T06:57:37;7.50;99.90
14099;DHT22;7126;48.458;7.930;2024-03-07T07:00:04;7.50;99.90
14099;DHT22;7126;48.458;7.930;2024-03-07T07:02:40;7.40;99.90
14099;DHT22;7126;48.458;7.930;2024-03-07T07:05:07;7.40;99.90
14099;DHT22;7126;48.458;7.930;2024-03-07T07:07:37;7.40;99.90
14099;DHT22;7126;48.458;7.930;2024-03-07T07:10:04;7.30;99.90
14099;DHT22;7126;48.458;7.930;2024-03-07T07:12:30;7.30;99.90
14099;DHT22;7126;48.458;7.930;2024-03-07T07:14:55;7.30;99.90
14099;DHT22;7126;48.458;7.930;2024-03-07T07:17:21;7.40;99.90
14099;DHT22;7126;48.458;7.930;2024-03-07T07:19:49;7.40;99.90
14099;DHT22;7126;48.458;7.930;2024-03-07T07:22:14;7.40;99.90
14099;DHT22;7126;48.458;7.930;2024-03-07T07:24:40;7.50;99.90
14099;DHT22;7126;48.458;7.930;2024-03-07T07:27:05;7.50;99.90
14099;DHT22;7126;48.458;7.930;2024-03-07T07:29:32;7.50;99.90
14099;DHT22;7126;48.458;7.930;2024-03-07T07:31:58;7.60;99.90
14099;DHT22;7126;48.458;7.930;2024-03-07T07:34:23;7.60;99.90
14099;DHT22;7126;48.458;7.930;2024-03-07T07:36:49;7.60;99.90
14099;DHT22;7126;48.458;7.930;2024-03-07T07:39:14;7.60;99.90
14099;DHT22;7126;48.458;7.930;2024-03-07T07:41:42;7.60;99.90
14099;DHT22;7126;48.458;7.930;2024-03-07T07:44:08;7.50;99.90
14099;DHT22;7126;48.458;7.930;2024-03-07T07:46:34;7.60;99.90
14099;DHT22;7126;48.458;7.930;2024-03-07T07:49:01;7.60;99.90
14099;DHT22;7126;48.458;7.930;2024-03-07T07:51:27;7.60;99.90
14099;DHT22;7126;48.458;7.930;2024-03-07T07:53:53;7.70;99.90
14099;DHT22;7126;48.458;7.930;2024-03-07T07:56:22;7.70;99.90
14099;DHT22;7126;48.458;7.930;2024-03-07T07:58:47;7.70;99.90
14099;DHT22;7126;48.458;7.930;2024-03-07T08:01:14;7.70;99.90
14099;DHT22;7126;48.458;7.930;2024-03-07T08:03:43;7.80;99.90
14099;DHT22;7126;48.458;7.930;2024-03-07T08:06:09;7.80;99.90
14099;DHT22;7126;48.458;7.930;2024-03-07T08:08:34;7.80;99.90
14099;DHT22;7126;48.458;7.930;2024-03-07T08:11:00;7.80;99.90
14099;DHT22;7126;48.458;7.930;2024-03-07T08:13:26;7.80;99.90
14099;DHT22;7126;48.458;7.930;2024-03-07T08:15:52;7.80;99.90
14099;DHT22;7126;48.458;7.930;2024-03-07T08:18:19;7.90;99.90
14099;DHT22;7126;48.458;7.930;2024-03-07T08:20:46;7.90;99.90
14099;DHT22;7126;48.458;7.930;2024-03-07T08:23:12;7.90;99.90
14099;DHT22;7126;48.458;7.930;2024-03-07T08:25:40;7.90;99.90
14099;DHT22;7126;48.458;7.930;2024-03-07T08:28:06;7.90;99.90
14099;DHT22;7126;48.458;7.930;2024-03-07T08:30:32;7.90;99.90
14099;DHT22;7126;48.458;7.930;2024-03-07T08:32:58;7.90;99.90
14099;DHT22;7126;48.458;7.930;2024-03-07T08:35:25;7.90;99.90
14099;DHT22;7126;48.458;7.930;2024-03-07T08:37:51;8.00;99.90
14099;DHT22;7126;48.458;7.930;2024-03-07T08:40:22;8.00;99.90
14099;DHT22;7126;48.458;7.930;2024-03-07T08:42:49;8.00;99.90
14099;DHT22;7126;48.458;7.930;2024-03-07T08:45:19;8.00;99.90
14099;DHT22;7126;48.458;7.930;2024-03-07T08:47:46;8.10;99.90
14099;DHT22;7126;48.458;7.930;2024-03-07T08:50:13;8.20;99.90
14099;DHT22;7126;48.458;7.930;2024-03-07T08:52:40;8.20;99.90
14099;DHT22;7126;48.458;7.930;2024-03-07T08:55:07;8.20;99.90
14099;DHT22;7126;48.458;7.930;2024-03-07T08:57:35;8.20;99.90
14099;DHT22;7126;48.458;7.930;2024-03-07T09:00:02;8.20;99.90
14099;DHT22;7126;48.458;7.930;2024-03-07T09:02:37;8.30;99.90
14099;DHT22;7126;48.458;7.930;2024-03-07T09:05:04;8.30;99.90
14099;DHT22;7126;48.458;7.930;2024-03-07T09:07:30;8.40;99.90
14099;DHT22;7126;48.458;7.930;2024-03-07T09:09:56;8.50;99.90
14099;DHT22;7126;48.458;7.930;2024-03-07T09:12:22;8.50;99.90
14099;DHT22;7126;48.458;7.930;2024-03-07T09:14:48;8.50;99.90
14099;DHT22;7126;48.458;7.930;2024-03-07T09:17:14;8.60;99.90
14099;DHT22;7126;48.458;7.930;2024-03-07T09:19:40;8.60;99.90
14099;DHT22;7126;48.458;7.930;2024-03-07T09:22:06;8.60;99.90
14099;DHT22;7126;48.458;7.930;2024-03-07T09:24:33;8.60;99.90
14099;DHT22;7126;48.458;7.930;2024-03-07T09:27:00;8.60;99.90
14099;DHT22;7126;48.458;7.930;2024-03-07T09:29:26;8.60;99.90
14099;DHT22;7126;48.458;7.930;2024-03-07T09:31:53;8.70;99.90
14099;DHT22;7126;48.458;7.930;2024-03-07T09:34:19;8.70;99.90
14099;DHT22;7126;48.458;7.930;2024-03-07T09:36:48;8.80;99.90
14099;DHT22;7126;48.458;7.930;2024-03-07T09:39:14;8.80;99.90
14099;DHT22;7126;48.458;7.930;2024-03-07T09:41:40;8.80;99.90
14099;DHT22;7126;48.458;7.930;2024-03-07T09:44:17;8.90;99.90
14099;DHT22;7126;48.458;7.930;2024-03-07T09:46:48;8.90;99.90
14099;DHT22;7126;48.458;7.930;2024-03-07T09:49:14;8.90;99.90
14099;DHT22;7126;48.458;7.930;2024-03-07T09:51:40;8.90;99.90
14099;DHT22;7126;48.458;7.930;2024-03-07T09:54:08;8.90;99.90
14099;DHT22;7126;48.458;7.930;2024-03-07T09:56:34;8.90;99.90
14099;DHT22;7126;48.458;7.930;2024-03-07T09:59:11;8.90;99.90
14099;DHT22;7126;48.458;7.930;2024-03-07T10:01:38;8.90;99.90
14099;DHT22;7126;48.458;7.930;2024-03-07T10:04:05;8.80;99.90
14099;DHT22;7126;48.458;7.930;2024-03-07T10:06:42;8.80;99.90
14099;DHT22;7126;48.458;7.930;2024-03-07T10:09:11;8.80;99.90
14099;DHT22;7126;48.458;7.930;2024-03-07T10:11:42;8.90;99.90
14099;DHT22;7126;48.458;7.930;2024-03-07T10:14:09;8.80;99.90
14099;DHT22;7126;48.458;7.930;2024-03-07T10:16:36;8.80;99.90
14099;DHT22;7126;48.458;7.930;2024-03-07T10:19:05;8.90;99.90
14099;DHT22;7126;48.458;7.930;2024-03-07T10:21:30;8.90;99.90
14099;DHT22;7126;48.458;7.930;2024-03-07T10:24:06;8.80;99.90
14099;DHT22;7126;48.458;7.930;2024-03-07T10:26:35;8.80;99.90
14099;DHT22;7126;48.458;7.930;2024-03-07T10:29:00;8.90;99.90
14099;DHT22;7126;48.458;7.930;2024-03-07T10:31:30;8.90;99.90
14099;DHT22;7126;48.458;7.930;2024-03-07T10:34:03;8.90;99.90
14099;DHT22;7126;48.458;7.930;2024-03-07T10:36:32;9.00;99.90
14099;DHT22;7126;48.458;7.930;2024-03-07T10:38:59;8.90;99.90
14099;DHT22;7126;48.458;7.930;2024-03-07T10:41:35;8.90;99.90
14099;DHT22;7126;48.458;7.930;2024-03-07T10:44:04;9.00;99.90
14099;DHT22;7126;48.458;7.930;2024-03-07T10:46:32;9.00;99.90
14099;DHT22;7126;48.458;7.930;2024-03-07T10:48:59;9.00;99.90
14099;DHT22;7126;48.458;7.930;2024-03-07T10:51:40;9.00;99.90
14099;DHT22;7126;48.458;7.930;2024-03-07T10:54:32;9.10;99.90
14099;DHT22;7126;48.458;7.930;2024-03-07T10:59:34;9.10;99.90
14099;DHT22;7126;48.458;7.930;2024-03-07T11:04:52;9.00;99.90
14099;DHT22;7126;48.458;7.930;2024-03-07T11:07:20;9.10;99.90
14099;DHT22;7126;48.458;7.930;2024-03-07T11:09:49;9.20;99.90
14099;DHT22;7126;48.458;7.930;2024-03-07T11:12:19;9.30;99.90
14099;DHT22;7126;48.458;7.930;2024-03-07T11:14:47;9.40;99.90
14099;DHT22;7126;48.458;7.930;2024-03-07T11:17:14;9.40;99.90
14099;DHT22;7126;48.458;7.930;2024-03-07T11:19:40;9.40;99.90
14099;DHT22;7126;48.458;7.930;2024-03-07T11:22:06;9.50;99.90
14099;DHT22;7126;48.458;7.930;2024-03-07T11:24:41;9.50;99.90
14099;DHT22;7126;48.458;7.930;2024-03-07T11:27:09;9.50;99.90
14099;DHT22;7126;48.458;7.930;2024-03-07T11:29:47;9.50;99.90
14099;DHT22;7126;48.458;7.930;2024-03-07T11:32:13;9.40;99.90
14099;DHT22;7126;48.458;7.930;2024-03-07T11:34:40;9.30;99.90
14099;DHT22;7126;48.458;7.930;2024-03-07T11:37:20;9.20;99.90
14099;DHT22;7126;48.458;7.930;2024-03-07T11:40:02;9.00;99.90
14099;DHT22;7126;48.458;7.930;2024-03-07T11:42:33;9.00;99.90
14099;DHT22;7126;48.458;7.930;2024-03-07T11:45:02;9.00;99.90
14099;DHT22;7126;48.458;7.930;2024-03-07T11:47:37;8.90;99.90
14099;DHT22;7126;48.458;7.930;2024-03-07T11:50:04;8.90;99.90
14099;DHT22;7126;48.458;7.930;2024-03-07T11:52:33;8.80;99.90
14099;DHT22;7126;48.458;7.930;2024-03-07T11:54:59;8.70;99.90
14099;DHT22;7126;48.458;7.930;2024-03-07T11:57:29;8.70;99.90
14099;DHT22;7126;48.458;7.930;2024-03-07T12:00:01;8.80;99.90
14099;DHT22;7126;48.458;7.930;2024-03-07T12:02:33;8.80;99.90
14099;DHT22;7126;48.458;7.930;2024-03-07T12:04:59;8.90;99.90
14099;DHT22;7126;48.458;7.930;2024-03-07T12:07:26;8.80;99.90
14099;DHT22;7126;48.458;7.930;2024-03-07T12:09:52;8.80;99.90
14099;DHT22;7126;48.458;7.930;2024-03-07T12:12:21;8.90;99.90
14099;DHT22;7126;48.458;7.930;2024-03-07T12:14:47;9.00;99.90
14099;DHT22;7126;48.458;7.930;2024-03-07T12:17:16;9.00;99.90
14099;DHT22;7126;48.458;7.930;2024-03-07T12:19:42;9.00;99.90
14099;DHT22;7126;48.458;7.930;2024-03-07T12:22:08;9.10;99.90
14099;DHT22;7126;48.458;7.930;2024-03-07T12:25:00;9.00;99.90
14099;DHT22;7126;48.458;7.930;2024-03-07T12:27:27;9.00;99.90
14099;DHT22;7126;48.458;7.930;2024-03-07T12:29:53;9.00;99.90
14099;DHT22;7126;48.458;7.930;2024-03-07T12:32:19;9.10;99.90
14099;DHT22;7126;48.458;7.930;2024-03-07T12:34:44;9.00;99.90
14099;DHT22;7126;48.458;7.930;2024-03-07T12:37:12;9.00;99.90
14099;DHT22;7126;48.458;7.930;2024-03-07T12:39:44;9.00;99.90
14099;DHT22;7126;48.458;7.930;2024-03-07T12:42:15;9.00;99.90
14099;DHT22;7126;48.458;7.930;2024-03-07T12:44:43;9.00;99.90
14099;DHT22;7126;48.458;7.930;2024-03-07T12:47:14;9.20;99.90
14099;DHT22;7126;48.458;7.930;2024-03-07T12:49:41;9.30;99.90
14099;DHT22;7126;48.458;7.930;2024-03-07T12:52:07;9.40;99.90
14099;DHT22;7126;48.458;7.930;2024-03-07T12:54:34;9.60;99.90
14099;DHT22;7126;48.458;7.930;2024-03-07T12:57:00;9.70;99.90
14099;DHT22;7126;48.458;7.930;2024-03-07T12:59:25;9.80;99.90
14099;DHT22;7126;48.458;7.930;2024-03-07T13:01:51;9.90;99.90
14099;DHT22;7126;48.458;7.930;2024-03-07T13:04:17;10.00;99.90
14099;DHT22;7126;48.458;7.930;2024-03-07T13:06:42;10.00;99.90
14099;DHT22;7126;48.458;7.930;2024-03-07T13:09:11;10.10;99.90
14099;DHT22;7126;48.458;7.930;2024-03-07T13:11:40;10.20;99.90
14099;DHT22;7126;48.458;7.930;2024-03-07T13:14:13;10.30;99.90
14099;DHT22;7126;48.458;7.930;2024-03-07T13:16:39;10.40;99.90
14099;DHT22;7126;48.458;7.930;2024-03-07T13:19:04;10.40;99.90
14099;DHT22;7126;48.458;7.930;2024-03-07T13:21:31;10.50;99.90
14099;DHT22;7126;48.458;7.930;2024-03-07T13:23:57;10.40;99.90
14099;DHT22;7126;48.458;7.930;2024-03-07T13:26:23;10.30;99.90
14099;DHT22;7126;48.458;7.930;2024-03-07T13:28:51;10.30;99.90
14099;DHT22;7126;48.458;7.930;2024-03-07T13:31:18;10.30;99.90
14099;DHT22;7126;48.458;7.930;2024-03-07T13:33:44;10.30;99.90
14099;DHT22;7126;48.458;7.930;2024-03-07T13:36:10;10.30;99.90
14099;DHT22;7126;48.458;7.930;2024-03-07T13:38:36;10.30;99.90
14099;DHT22;7126;48.458;7.930;2024-03-07T13:41:02;10.40;99.90
14099;DHT22;7126;48.458;7.930;2024-03-07T13:43:30;10.50;99.90
14099;DHT22;7126;48.458;7.930;2024-03-07T13:45:59;10.70;99.90
14099;DHT22;7126;48.458;7.930;2024-03-07T13:48:25;10.80;99.90
14099;DHT22;7126;48.458;7.930;2024-03-07T13:50:50;10.80;99.90
14099;DHT22;7126;48.458;7.930;2024-03-07T13:53:18;10.80;99.90
14099;DHT22;7126;48.458;7.930;2024-03-07T14:01:52;11.10;99.90
14099;DHT22;7126;48.458;7.930;2024-03-07T14:13:42;10.80;99.90
14099;DHT22;7126;48.458;7.930;2024-03-07T14:27:18;11.00;99.90
14099;DHT22;7126;48.458;7.930;2024-03-07T14:32:49;10.90;99.90
14099;DHT22;7126;48.458;7.930;2024-03-07T14:35:23;11.00;99.90
14099;DHT22;7126;48.458;7.930;2024-03-07T14:40:48;11.30;99.90
14099;DHT22;7126;48.458;7.930;2024-03-07T14:43:15;11.40;99.90
14099;DHT22;7126;48.458;7.930;2024-03-07T14:45:42;11.40;99.90
14099;DHT22;7126;48.458;7.930;2024-03-07T14:48:10;11.30;99.90
14099;DHT22;7126;48.458;7.930;2024-03-07T14:50:39;11.30;99.90
14099;DHT22;7126;48.458;7.930;2024-03-07T14:53:05;11.40;99.90
14099;DHT22;7126;48.458;7.930;2024-03-07T14:55:31;11.60;99.90
14099;DHT22;7126;48.458;7.930;2024-03-07T14:57:58;11.40;99.90
14099;DHT22;7126;48.458;7.930;2024-03-07T15:00:24;11.30;99.90
14099;DHT22;7126;48.458;7.930;2024-03-07T15:02:53;11.20;99.90
14099;DHT22;7126;48.458;7.930;2024-03-07T15:05:24;11.10;99.90
14099;DHT22;7126;48.458;7.930;2024-03-07T15:07:53;11.10;99.90
14099;DHT22;7126;48.458;7.930;2024-03-07T15:10:24;11.20;99.90
14099;DHT22;7126;48.458;7.930;2024-03-07T15:12:52;11.40;99.90
14099;DHT22;7126;48.458;7.930;2024-03-07T15:15:18;11.60;99.90
14099;DHT22;7126;48.458;7.930;2024-03-07T15:17:45;11.80;99.90
14099;DHT22;7126;48.458;7.930;2024-03-07T15:20:14;11.90;99.90
14099;DHT22;7126;48.458;7.930;2024-03-07T15:22:56;11.90;99.90
14099;DHT22;7126;48.458;7.930;2024-03-07T15:25:23;11.80;99.90
14099;DHT22;7126;48.458;7.930;2024-03-07T15:27:50;11.80;99.90
14099;DHT22;7126;48.458;7.930;2024-03-07T15:30:17;11.90;99.90
14099;DHT22;7126;48.458;7.930;2024-03-07T15:32:43;11.80;99.90
14099;DHT22;7126;48.458;7.930;2024-03-07T15:35:10;11.70;99.90
14099;DHT22;7126;48.458;7.930;2024-03-07T15:37:42;11.60;99.90
14099;DHT22;7126;48.458;7.930;2024-03-07T15:40:08;11.50;99.90
14099;DHT22;7126;48.458;7.930;2024-03-07T15:42:47;11.30;99.90
14099;DHT22;7126;48.458;7.930;2024-03-07T15:45:18;11.20;99.90
14099;DHT22;7126;48.458;7.930;2024-03-07T15:47:45;11.20;99.90
14099;DHT22;7126;48.458;7.930;2024-03-07T15:50:11;11.20;99.90
14099;DHT22;7126;48.458;7.930;2024-03-07T15:52:41;11.20;99.90
14099;DHT22;7126;48.458;7.930;2024-03-07T15:55:11;11.20;99.90
14099;DHT22;7126;48.458;7.930;2024-03-07T15:57:46;11.20;99.90
14099;DHT22;7126;48.458;7.930;2024-03-07T16:00:15;11.20;99.90
14099;DHT22;7126;48.458;7.930;2024-03-07T16:02:57;11.10;99.90
14099;DHT22;7126;48.458;7.930;2024-03-07T16:05:24;11.10;99.90
14099;DHT22;7126;48.458;7.930;2024-03-07T16:07:54;11.00;99.90
14099;DHT22;7126;48.458;7.930;2024-03-07T16:10:21;11.00;99.90
14099;DHT22;7126;48.458;7.930;2024-03-07T16:12:50;10.90;99.90
14099;DHT22;7126;48.458;7.930;2024-03-07T16:15:16;10.80;99.90
14099;DHT22;7126;48.458;7.930;2024-03-07T16:17:43;10.80;99.90
14099;DHT22;7126;48.458;7.930;2024-03-07T16:20:10;10.80;99.90
14099;DHT22;7126;48.458;7.930;2024-03-07T16:22:44;10.80;99.90
14099;DHT22;7126;48.458;7.930;2024-03-07T16:25:10;10.70;99.90
14099;DHT22;7126;48.458;7.930;2024-03-07T16:27:37;10.70;99.90
14099;DHT22;7126;48.458;7.930;2024-03-07T16:30:04;10.60;99.90
14099;DHT22;7126;48.458;7.930;2024-03-07T16:32:35;10.50;99.90
14099;DHT22;7126;48.458;7.930;2024-03-07T16:35:02;10.40;99.90
14099;DHT22;7126;48.458;7.930;2024-03-07T16:37:38;10.40;99.90
14099;DHT22;7126;48.458;7.930;2024-03-07T16:40:09;10.30;99.90